»·PEaware :: N7565G KSBA-KBUR

N7565G :: KSBA-KBUR

FLIGHT INFORMATION

Flight Status: Arrived
Operator: Privately registered:
United States
More flights under this callsign
Pilot: Reuben K. (13591)
Aircraft: CESSNA 172 SKYHAWK
(C172)
More flights by this aircraft type
Origin: KSBA Santa Barbara Mun
United States
Destination: KBUR Bob Hope-Burbank
United States
More flights between these airports :: More routes between these airports
Route: +
File this flight plan on PilotEdge
Remarks: CAT8
Altitude:
(Current/Filed)
7,500ft
Speed:
(Current/Filed)
0kts
Departed: 16-Feb-19 07:00 PM
Arrived: 16-Feb-19 07:49 PM
Distance/Time
Traveled:
74nm/0:49
Distance/Time
To Go:
Arrived

Flight Plot

Page will automatically refresh every two minutes.


Map Options




Map Legend


Flown Route
Filed Route
Departure Airport
Arrival Airport
Navaid (VOR, NDB)
Fix

Horizontal Profiles

Position Reports

Time Latitude Longitude Heading Altitude Ground
Speed
16-Feb-19 18:44 34.422664 -119.835593 340 17ft 0kts
16-Feb-19 18:45 34.422664 -119.835593 340 17ft 0kts
16-Feb-19 18:46 34.422664 -119.835593 340 17ft 0kts
16-Feb-19 18:47 34.422664 -119.835593 340 17ft 0kts
16-Feb-19 18:48 34.422664 -119.835593 340 17ft 0kts
16-Feb-19 18:49 34.422664 -119.835593 340 17ft 0kts
16-Feb-19 18:50 34.422664 -119.835593 340 17ft 0kts
16-Feb-19 18:51 34.422664 -119.835593 340 17ft 0kts
16-Feb-19 18:52 34.422336 -119.836155 280 17ft 0kts
16-Feb-19 18:53 34.425413 -119.837873 352 17ft 20kts
16-Feb-19 18:54 34.427100 -119.834610 358 17ft 0kts
16-Feb-19 18:55 34.427100 -119.834610 358 17ft 0kts
16-Feb-19 18:56 34.427100 -119.834610 358 17ft 0kts
16-Feb-19 18:58 34.427102 -119.834610 358 17ft 0kts
16-Feb-19 18:59 34.427865 -119.835099 286 17ft 13kts
16-Feb-19 19:00 34.426337 -119.859900 262 777ft 87kts
16-Feb-19 19:01 34.422771 -119.888773 254 1628ft 85kts
16-Feb-19 19:02 34.415026 -119.918727 256 1908ft 97kts
16-Feb-19 19:03 34.396325 -119.930196 113 1984ft 104kts
16-Feb-19 19:04 34.395164 -119.898525 84 3030ft 93kts
16-Feb-19 19:05 34.400678 -119.867482 71 3918ft 95kts
16-Feb-19 19:06 34.408740 -119.836749 69 4739ft 96kts
16-Feb-19 19:07 34.414422 -119.804967 84 5499ft 97kts
16-Feb-19 19:08 34.413484 -119.772053 100 6213ft 98kts
16-Feb-19 19:09 34.409502 -119.739005 97 6867ft 99kts
16-Feb-19 19:10 34.405666 -119.705508 97 7479ft 101kts
16-Feb-19 19:11 34.401468 -119.668648 97 7665ft 120kts
16-Feb-19 19:12 34.396446 -119.628541 100 7664ft 120kts
16-Feb-19 19:13 34.390121 -119.588631 100 7664ft 120kts
16-Feb-19 19:14 34.383826 -119.548806 100 7664ft 120kts
16-Feb-19 19:15 34.377528 -119.508839 100 7664ft 120kts
16-Feb-19 19:16 34.371282 -119.469065 100 7664ft 120kts
16-Feb-19 19:17 34.365006 -119.428971 100 7664ft 120kts
16-Feb-19 19:18 34.363880 -119.388801 85 7664ft 120kts
16-Feb-19 19:19 34.363035 -119.348317 95 7664ft 120kts
16-Feb-19 19:20 34.359263 -119.308112 97 7664ft 120kts
16-Feb-19 19:20 34.355522 -119.274715 98 7664ft 120kts
16-Feb-19 19:21 34.350816 -119.234512 98 7664ft 120kts
16-Feb-19 19:23 34.345274 -119.187905 98 7664ft 120kts
16-Feb-19 19:24 34.340472 -119.147758 98 7664ft 120kts
16-Feb-19 19:24 34.336466 -119.114366 98 7664ft 120kts
16-Feb-19 19:25 34.331648 -119.074317 98 7664ft 120kts
16-Feb-19 19:26 34.326808 -119.034202 98 7664ft 120kts
16-Feb-19 19:27 34.321407 -118.994073 102 7664ft 120kts
16-Feb-19 19:28 34.315141 -118.954239 98 7664ft 120kts
16-Feb-19 19:29 34.309308 -118.914315 104 7664ft 120kts
16-Feb-19 19:30 34.301072 -118.875101 104 7664ft 120kts
16-Feb-19 19:31 34.292815 -118.835709 104 7664ft 120kts
16-Feb-19 19:32 34.284609 -118.796459 103 7664ft 120kts
16-Feb-19 19:33 34.277449 -118.757029 101 7664ft 120kts
16-Feb-19 19:34 34.270444 -118.717568 101 7662ft 117kts
16-Feb-19 19:35 34.263863 -118.680376 101 7664ft 111kts
16-Feb-19 19:36 34.257443 -118.643970 101 7664ft 110kts
16-Feb-19 19:37 34.250965 -118.608584 105 7190ft 111kts
16-Feb-19 19:38 34.239876 -118.573183 116 5894ft 115kts
16-Feb-19 19:39 34.222951 -118.541076 123 4513ft 114kts
16-Feb-19 19:40 34.211895 -118.508891 103 3743ft 105kts
16-Feb-19 19:41 34.204223 -118.476579 107 3370ft 99kts
16-Feb-19 19:42 34.198508 -118.445078 106 3077ft 96kts
16-Feb-19 19:43 34.190151 -118.415419 104 2637ft 85kts
16-Feb-19 19:44 34.187931 -118.387572 88 2166ft 84kts
16-Feb-19 19:45 34.188371 -118.359759 89 1978ft 83kts
16-Feb-19 19:46 34.188389 -118.333405 78 1839ft 75kts
16-Feb-19 19:47 34.197616 -118.343493 266 937ft 77kts
16-Feb-19 19:48 34.197483 -118.357899 210 781ft 8kts
16-Feb-19 19:49 34.196916 -118.358014 198 781ft 4kts
16-Feb-19 19:50 34.196867 -118.363748 268 781ft 14kts
16-Feb-19 19:51 34.196210 -118.365516 70 781ft 0kts
16-Feb-19 19:52 34.196210 -118.365516 70 781ft 0kts
16-Feb-19 19:53 34.196210 -118.365516 70 781ft 0kts
16-Feb-19 19:54 34.196210 -118.365516 70 781ft 0kts

Navigation Log

Ident Type
Flight plan parsing failed, navigation log unavailable